sensor_id;sensor_type;location;lat;lon;timestamp;temperature;humidity
68450;SHT30;67758;39.572;2.652;2024-02-26T00:01:55;16.18;80.79
68450;SHT30;67758;39.572;2.652;2024-02-26T00:04:21;16.22;80.59
68450;SHT30;67758;39.572;2.652;2024-02-26T00:06:47;16.20;80.49
68450;SHT30;67758;39.572;2.652;2024-02-26T00:09:16;16.17;80.50
68450;SHT30;67758;39.572;2.652;2024-02-26T00:11:41;16.16;80.34
68450;SHT30;67758;39.572;2.652;2024-02-26T00:14:07;16.18;80.08
68450;SHT30;67758;39.572;2.652;2024-02-26T00:16:32;16.14;80.23
68450;SHT30;67758;39.572;2.652;2024-02-26T00:18:58;16.09;80.86
68450;SHT30;67758;39.572;2.652;2024-02-26T00:21:24;16.00;81.43
68450;SHT30;67758;39.572;2.652;2024-02-26T00:23:50;15.97;82.07
68450;SHT30;67758;39.572;2.652;2024-02-26T00:26:16;15.93;82.65
68450;SHT30;67758;39.572;2.652;2024-02-26T00:28:42;15.96;82.83
68450;SHT30;67758;39.572;2.652;2024-02-26T00:31:08;15.94;83.20
68450;SHT30;67758;39.572;2.652;2024-02-26T00:33:33;15.91;83.76
68450;SHT30;67758;39.572;2.652;2024-02-26T00:35:59;15.83;84.49
68450;SHT30;67758;39.572;2.652;2024-02-26T00:38:24;15.77;85.09
68450;SHT30;67758;39.572;2.652;2024-02-26T00:40:50;15.77;85.27
68450;SHT30;67758;39.572;2.652;2024-02-26T00:43:15;15.73;85.56
68450;SHT30;67758;39.572;2.652;2024-02-26T00:45:41;15.70;85.86
68450;SHT30;67758;39.572;2.652;2024-02-26T00:48:07;15.70;86.30
68450;SHT30;67758;39.572;2.652;2024-02-26T00:50:33;15.65;86.62
68450;SHT30;67758;39.572;2.652;2024-02-26T00:52:59;15.66;86.61
68450;SHT30;67758;39.572;2.652;2024-02-26T00:55:25;15.63;86.71
68450;SHT30;67758;39.572;2.652;2024-02-26T00:57:51;15.63;86.74
68450;SHT30;67758;39.572;2.652;2024-02-26T01:00:17;15.60;86.80
68450;SHT30;67758;39.572;2.652;2024-02-26T01:02:42;15.63;86.84
68450;SHT30;67758;39.572;2.652;2024-02-26T01:05:08;15.66;86.84
68450;SHT30;67758;39.572;2.652;2024-02-26T01:07:37;15.71;86.98
68450;SHT30;67758;39.572;2.652;2024-02-26T01:10:05;15.71;87.27
68450;SHT30;67758;39.572;2.652;2024-02-26T01:12:32;15.74;87.37
68450;SHT30;67758;39.572;2.652;2024-02-26T01:14:58;15.74;87.14
68450;SHT30;67758;39.572;2.652;2024-02-26T01:17:23;15.74;87.10
68450;SHT30;67758;39.572;2.652;2024-02-26T01:19:49;15.73;87.20
68450;SHT30;67758;39.572;2.652;2024-02-26T01:22:14;15.74;87.19
68450;SHT30;67758;39.572;2.652;2024-02-26T01:24:40;15.79;86.75
68450;SHT30;67758;39.572;2.652;2024-02-26T01:27:05;15.80;86.72
68450;SHT30;67758;39.572;2.652;2024-02-26T01:29:33;15.85;86.47
68450;SHT30;67758;39.572;2.652;2024-02-26T01:31:58;15.83;86.28
68450;SHT30;67758;39.572;2.652;2024-02-26T01:34:24;15.90;85.32
68450;SHT30;67758;39.572;2.652;2024-02-26T01:36:49;15.99;84.79
68450;SHT30;67758;39.572;2.652;2024-02-26T01:39:15;15.97;84.60
68450;SHT30;67758;39.572;2.652;2024-02-26T01:41:41;16.04;84.40
68450;SHT30;67758;39.572;2.652;2024-02-26T01:44:06;16.01;84.09
68450;SHT30;67758;39.572;2.652;2024-02-26T01:46:34;16.14;82.27
68450;SHT30;67758;39.572;2.652;2024-02-26T01:49:01;16.28;81.37
68450;SHT30;67758;39.572;2.652;2024-02-26T01:51:28;16.44;79.69
68450;SHT30;67758;39.572;2.652;2024-02-26T01:53:54;16.48;79.23
68450;SHT30;67758;39.572;2.652;2024-02-26T01:56:21;16.57;77.84
68450;SHT30;67758;39.572;2.652;2024-02-26T01:58:48;16.72;76.57
68450;SHT30;67758;39.572;2.652;2024-02-26T02:01:15;16.86;75.37
68450;SHT30;67758;39.572;2.652;2024-02-26T02:03:42;16.96;74.30
68450;SHT30;67758;39.572;2.652;2024-02-26T02:06:08;16.95;74.29
68450;SHT30;67758;39.572;2.652;2024-02-26T02:08:34;16.92;74.00
68450;SHT30;67758;39.572;2.652;2024-02-26T02:11:00;17.02;73.46
68450;SHT30;67758;39.572;2.652;2024-02-26T02:13:26;17.11;72.96
68450;SHT30;67758;39.572;2.652;2024-02-26T02:15:52;17.11;72.97
68450;SHT30;67758;39.572;2.652;2024-02-26T02:18:18;17.15;72.58
68450;SHT30;67758;39.572;2.652;2024-02-26T02:20:44;17.16;72.56
68450;SHT30;67758;39.572;2.652;2024-02-26T02:23:10;17.15;72.37
68450;SHT30;67758;39.572;2.652;2024-02-26T02:25:35;17.15;72.28
68450;SHT30;67758;39.572;2.652;2024-02-26T02:28:01;17.20;71.83
68450;SHT30;67758;39.572;2.652;2024-02-26T02:30:29;17.27;71.01
68450;SHT30;67758;39.572;2.652;2024-02-26T02:32:57;17.22;71.37
68450;SHT30;67758;39.572;2.652;2024-02-26T02:35:24;17.23;70.99
68450;SHT30;67758;39.572;2.652;2024-02-26T02:37:51;17.24;71.08
68450;SHT30;67758;39.572;2.652;2024-02-26T02:40:17;17.20;71.01
68450;SHT30;67758;39.572;2.652;2024-02-26T02:42:42;17.26;70.59
68450;SHT30;67758;39.572;2.652;2024-02-26T02:45:08;17.30;70.28
68450;SHT30;67758;39.572;2.652;2024-02-26T02:47:37;17.46;69.25
68450;SHT30;67758;39.572;2.652;2024-02-26T02:50:03;17.42;69.22
68450;SHT30;67758;39.572;2.652;2024-02-26T02:52:29;17.57;68.01
68450;SHT30;67758;39.572;2.652;2024-02-26T02:54:54;17.42;68.49
68450;SHT30;67758;39.572;2.652;2024-02-26T02:57:20;17.57;67.82
68450;SHT30;67758;39.572;2.652;2024-02-26T02:59:46;17.54;67.55
68450;SHT30;67758;39.572;2.652;2024-02-26T03:02:12;17.63;66.93
68450;SHT30;67758;39.572;2.652;2024-02-26T03:04:37;17.57;67.06
68450;SHT30;67758;39.572;2.652;2024-02-26T03:07:03;17.64;66.52
68450;SHT30;67758;39.572;2.652;2024-02-26T03:09:29;17.66;66.33
68450;SHT30;67758;39.572;2.652;2024-02-26T03:11:55;17.74;65.72
68450;SHT30;67758;39.572;2.652;2024-02-26T03:14:20;17.95;64.79
68450;SHT30;67758;39.572;2.652;2024-02-26T03:16:46;17.84;65.28
68450;SHT30;67758;39.572;2.652;2024-02-26T03:19:15;17.77;65.38
68450;SHT30;67758;39.572;2.652;2024-02-26T03:21:44;17.74;65.37
68450;SHT30;67758;39.572;2.652;2024-02-26T03:24:09;17.75;65.09
68450;SHT30;67758;39.572;2.652;2024-02-26T03:26:38;17.78;64.98
68450;SHT30;67758;39.572;2.652;2024-02-26T03:29:04;17.69;65.28
68450;SHT30;67758;39.572;2.652;2024-02-26T03:31:30;17.64;65.49
68450;SHT30;67758;39.572;2.652;2024-02-26T03:33:56;17.75;65.35
68450;SHT30;67758;39.572;2.652;2024-02-26T03:36:21;17.78;65.33
68450;SHT30;67758;39.572;2.652;2024-02-26T03:38:50;17.75;65.58
68450;SHT30;67758;39.572;2.652;2024-02-26T03:41:15;17.84;65.28
68450;SHT30;67758;39.572;2.652;2024-02-26T03:43:41;17.75;65.66
68450;SHT30;67758;39.572;2.652;2024-02-26T03:46:07;17.74;65.83
68450;SHT30;67758;39.572;2.652;2024-02-26T03:48:34;17.74;65.84
68450;SHT30;67758;39.572;2.652;2024-02-26T03:51:00;17.77;65.80
68450;SHT30;67758;39.572;2.652;2024-02-26T03:53:27;17.73;65.85
68450;SHT30;67758;39.572;2.652;2024-02-26T03:55:53;17.75;65.77
68450;SHT30;67758;39.572;2.652;2024-02-26T03:58:20;17.69;66.18
68450;SHT30;67758;39.572;2.652;2024-02-26T04:00:46;17.75;65.58
68450;SHT30;67758;39.572;2.652;2024-02-26T04:03:13;17.78;65.64
68450;SHT30;67758;39.572;2.652;2024-02-26T04:05:39;17.78;65.61
68450;SHT30;67758;39.572;2.652;2024-02-26T04:08:05;17.78;65.59
68450;SHT30;67758;39.572;2.652;2024-02-26T04:10:33;17.74;65.66
68450;SHT30;67758;39.572;2.652;2024-02-26T04:13:00;17.81;65.28
68450;SHT30;67758;39.572;2.652;2024-02-26T04:15:26;17.75;65.55
68450;SHT30;67758;39.572;2.652;2024-02-26T04:17:51;17.73;65.53
68450;SHT30;67758;39.572;2.652;2024-02-26T04:20:17;17.73;65.51
68450;SHT30;67758;39.572;2.652;2024-02-26T04:22:43;17.70;65.59
68450;SHT30;67758;39.572;2.652;2024-02-26T04:25:09;17.62;65.88
68450;SHT30;67758;39.572;2.652;2024-02-26T04:27:35;17.62;66.01
68450;SHT30;67758;39.572;2.652;2024-02-26T04:30:01;17.59;66.28
68450;SHT30;67758;39.572;2.652;2024-02-26T04:32:26;17.64;66.05
68450;SHT30;67758;39.572;2.652;2024-02-26T04:34:53;17.67;65.96
68450;SHT30;67758;39.572;2.652;2024-02-26T04:37:19;17.62;66.18
68450;SHT30;67758;39.572;2.652;2024-02-26T04:39:48;17.60;66.22
68450;SHT30;67758;39.572;2.652;2024-02-26T04:42:13;17.60;66.23
68450;SHT30;67758;39.572;2.652;2024-02-26T04:44:39;17.57;66.42
68450;SHT30;67758;39.572;2.652;2024-02-26T04:47:05;17.59;66.30
68450;SHT30;67758;39.572;2.652;2024-02-26T04:49:30;17.59;66.24
68450;SHT30;67758;39.572;2.652;2024-02-26T04:51:56;17.59;66.29
68450;SHT30;67758;39.572;2.652;2024-02-26T04:54:21;17.63;66.13
68450;SHT30;67758;39.572;2.652;2024-02-26T04:56:48;17.62;66.37
68450;SHT30;67758;39.572;2.652;2024-02-26T04:59:13;17.59;66.43
68450;SHT30;67758;39.572;2.652;2024-02-26T05:01:39;17.59;66.46
68450;SHT30;67758;39.572;2.652;2024-02-26T05:04:05;17.62;66.57
68450;SHT30;67758;39.572;2.652;2024-02-26T05:06:30;17.62;66.44
68450;SHT30;67758;39.572;2.652;2024-02-26T05:08:56;17.53;66.80
68450;SHT30;67758;39.572;2.652;2024-02-26T05:11:22;17.57;66.95
68450;SHT30;67758;39.572;2.652;2024-02-26T05:13:48;17.54;67.00
68450;SHT30;67758;39.572;2.652;2024-02-26T05:16:13;17.62;66.92
68450;SHT30;67758;39.572;2.652;2024-02-26T05:18:39;17.57;67.17
68450;SHT30;67758;39.572;2.652;2024-02-26T05:21:04;17.44;67.49
68450;SHT30;67758;39.572;2.652;2024-02-26T05:23:30;17.44;67.62
68450;SHT30;67758;39.572;2.652;2024-02-26T05:25:56;17.33;67.97
68450;SHT30;67758;39.572;2.652;2024-02-26T05:28:21;17.33;68.05
68450;SHT30;67758;39.572;2.652;2024-02-26T05:30:47;17.33;68.01
68450;SHT30;67758;39.572;2.652;2024-02-26T05:33:13;17.32;68.06
68450;SHT30;67758;39.572;2.652;2024-02-26T05:35:38;17.32;68.16
68450;SHT30;67758;39.572;2.652;2024-02-26T05:38:05;17.18;68.60
68450;SHT30;67758;39.572;2.652;2024-02-26T05:40:31;17.26;68.57
68450;SHT30;67758;39.572;2.652;2024-02-26T05:42:56;17.29;68.49
68450;SHT30;67758;39.572;2.652;2024-02-26T05:45:22;17.27;68.52
68450;SHT30;67758;39.572;2.652;2024-02-26T05:47:48;17.23;68.76
68450;SHT30;67758;39.572;2.652;2024-02-26T05:50:15;17.15;68.99
68450;SHT30;67758;39.572;2.652;2024-02-26T05:52:41;17.15;69.10
68450;SHT30;67758;39.572;2.652;2024-02-26T05:55:07;17.13;69.09
68450;SHT30;67758;39.572;2.652;2024-02-26T05:57:33;17.20;69.11
68450;SHT30;67758;39.572;2.652;2024-02-26T05:59:59;17.12;69.52
68450;SHT30;67758;39.572;2.652;2024-02-26T06:02:29;17.09;69.70
68450;SHT30;67758;39.572;2.652;2024-02-26T06:04:55;17.06;70.06
68450;SHT30;67758;39.572;2.652;2024-02-26T06:07:21;17.06;70.29
68450;SHT30;67758;39.572;2.652;2024-02-26T06:09:46;17.01;70.52
68450;SHT30;67758;39.572;2.652;2024-02-26T06:12:12;17.01;70.63
68450;SHT30;67758;39.572;2.652;2024-02-26T06:14:37;16.95;70.87
68450;SHT30;67758;39.572;2.652;2024-02-26T06:17:03;16.95;70.88
68450;SHT30;67758;39.572;2.652;2024-02-26T06:19:28;17.02;70.79
68450;SHT30;67758;39.572;2.652;2024-02-26T06:21:54;16.98;71.16
68450;SHT30;67758;39.572;2.652;2024-02-26T06:24:20;16.95;71.24
68450;SHT30;67758;39.572;2.652;2024-02-26T06:26:47;17.02;71.05
68450;SHT30;67758;39.572;2.652;2024-02-26T06:29:14;16.96;71.33
68450;SHT30;67758;39.572;2.652;2024-02-26T06:31:40;16.88;71.96
68450;SHT30;67758;39.572;2.652;2024-02-26T06:34:05;16.95;71.80
68450;SHT30;67758;39.572;2.652;2024-02-26T06:36:31;16.92;71.74
68450;SHT30;67758;39.572;2.652;2024-02-26T06:38:57;16.92;71.85
68450;SHT30;67758;39.572;2.652;2024-02-26T06:41:23;16.92;72.08
68450;SHT30;67758;39.572;2.652;2024-02-26T06:43:53;16.92;72.01
68450;SHT30;67758;39.572;2.652;2024-02-26T06:46:19;16.85;72.07
68450;SHT30;67758;39.572;2.652;2024-02-26T06:48:45;16.91;71.65
68450;SHT30;67758;39.572;2.652;2024-02-26T06:51:10;16.99;70.97
68450;SHT30;67758;39.572;2.652;2024-02-26T06:53:36;17.08;70.84
68450;SHT30;67758;39.572;2.652;2024-02-26T06:56:01;17.11;70.58
68450;SHT30;67758;39.572;2.652;2024-02-26T06:58:27;17.20;70.30
68450;SHT30;67758;39.572;2.652;2024-02-26T07:00:52;17.13;70.48
68450;SHT30;67758;39.572;2.652;2024-02-26T07:03:18;17.18;70.17
68450;SHT30;67758;39.572;2.652;2024-02-26T07:05:44;17.18;70.32
68450;SHT30;67758;39.572;2.652;2024-02-26T07:08:11;17.20;70.38
68450;SHT30;67758;39.572;2.652;2024-02-26T07:10:36;17.22;70.03
68450;SHT30;67758;39.572;2.652;2024-02-26T07:13:02;17.20;70.06
68450;SHT30;67758;39.572;2.652;2024-02-26T07:15:28;17.32;69.40
68450;SHT30;67758;39.572;2.652;2024-02-26T07:17:54;17.39;69.19
68450;SHT30;67758;39.572;2.652;2024-02-26T07:20:20;17.39;69.15
68450;SHT30;67758;39.572;2.652;2024-02-26T07:22:45;17.39;69.32
68450;SHT30;67758;39.572;2.652;2024-02-26T07:25:11;17.40;69.37
68450;SHT30;67758;39.572;2.652;2024-02-26T07:27:39;17.39;69.25
68450;SHT30;67758;39.572;2.652;2024-02-26T07:30:06;17.42;69.31
68450;SHT30;67758;39.572;2.652;2024-02-26T07:32:33;17.42;69.36
68450;SHT30;67758;39.572;2.652;2024-02-26T07:34:59;17.36;69.56
68450;SHT30;67758;39.572;2.652;2024-02-26T07:37:24;17.34;69.64
68450;SHT30;67758;39.572;2.652;2024-02-26T07:39:50;17.30;69.71
68450;SHT30;67758;39.572;2.652;2024-02-26T07:42:15;17.37;69.68
68450;SHT30;67758;39.572;2.652;2024-02-26T07:44:41;17.39;69.75
68450;SHT30;67758;39.572;2.652;2024-02-26T07:47:09;17.44;69.50
68450;SHT30;67758;39.572;2.652;2024-02-26T07:49:37;17.39;69.94
68450;SHT30;67758;39.572;2.652;2024-02-26T07:52:03;17.33;70.28
68450;SHT30;67758;39.572;2.652;2024-02-26T07:54:28;17.34;70.44
68450;SHT30;67758;39.572;2.652;2024-02-26T07:56:54;17.33;70.62
68450;SHT30;67758;39.572;2.652;2024-02-26T07:59:20;17.34;71.13
68450;SHT30;67758;39.572;2.652;2024-02-26T08:01:51;17.26;71.71
68450;SHT30;67758;39.572;2.652;2024-02-26T08:04:17;17.22;72.38
68450;SHT30;67758;39.572;2.652;2024-02-26T08:06:43;17.19;72.44
68450;SHT30;67758;39.572;2.652;2024-02-26T08:09:08;17.15;72.66
68450;SHT30;67758;39.572;2.652;2024-02-26T08:11:34;17.11;72.67
68450;SHT30;67758;39.572;2.652;2024-02-26T08:14:00;17.11;73.01
68450;SHT30;67758;39.572;2.652;2024-02-26T08:16:26;17.13;72.63
68450;SHT30;67758;39.572;2.652;2024-02-26T08:18:51;17.13;72.81
68450;SHT30;67758;39.572;2.652;2024-02-26T08:21:17;17.22;72.63
68450;SHT30;67758;39.572;2.652;2024-02-26T08:23:43;17.24;72.62
68450;SHT30;67758;39.572;2.652;2024-02-26T08:26:09;17.24;72.67
68450;SHT30;67758;39.572;2.652;2024-02-26T08:28:39;17.20;72.74
68450;SHT30;67758;39.572;2.652;2024-02-26T08:31:05;17.15;73.07
68450;SHT30;67758;39.572;2.652;2024-02-26T08:33:31;17.15;73.09
68450;SHT30;67758;39.572;2.652;2024-02-26T08:35:56;17.16;73.42
68450;SHT30;67758;39.572;2.652;2024-02-26T08:38:25;17.15;73.69
68450;SHT30;67758;39.572;2.652;2024-02-26T08:40:53;17.15;73.92
68450;SHT30;67758;39.572;2.652;2024-02-26T08:43:18;17.06;75.02
68450;SHT30;67758;39.572;2.652;2024-02-26T08:45:44;16.93;75.88
68450;SHT30;67758;39.572;2.652;2024-02-26T08:48:10;16.83;76.66
68450;SHT30;67758;39.572;2.652;2024-02-26T08:50:35;16.91;76.90
68450;SHT30;67758;39.572;2.652;2024-02-26T08:53:01;16.86;77.23
68450;SHT30;67758;39.572;2.652;2024-02-26T08:55:27;16.86;77.19
68450;SHT30;67758;39.572;2.652;2024-02-26T08:57:52;16.99;77.14
68450;SHT30;67758;39.572;2.652;2024-02-26T09:00:18;17.02;76.32
68450;SHT30;67758;39.572;2.652;2024-02-26T09:02:47;17.20;75.29
68450;SHT30;67758;39.572;2.652;2024-02-26T09:05:12;17.32;74.16
68450;SHT30;67758;39.572;2.652;2024-02-26T09:07:38;17.40;74.10
68450;SHT30;67758;39.572;2.652;2024-02-26T09:10:05;17.44;73.37
68450;SHT30;67758;39.572;2.652;2024-02-26T09:12:31;17.49;73.43
68450;SHT30;67758;39.572;2.652;2024-02-26T09:14:59;17.63;72.64
68450;SHT30;67758;39.572;2.652;2024-02-26T09:17:24;17.57;71.89
68450;SHT30;67758;39.572;2.652;2024-02-26T09:19:50;17.59;71.69
68450;SHT30;67758;39.572;2.652;2024-02-26T09:22:15;17.60;71.69
68450;SHT30;67758;39.572;2.652;2024-02-26T09:24:41;17.55;71.86
68450;SHT30;67758;39.572;2.652;2024-02-26T09:27:09;17.51;71.60
68450;SHT30;67758;39.572;2.652;2024-02-26T09:29:36;17.63;71.56
68450;SHT30;67758;39.572;2.652;2024-02-26T09:32:02;17.57;71.65
68450;SHT30;67758;39.572;2.652;2024-02-26T09:34:27;17.51;71.56
68450;SHT30;67758;39.572;2.652;2024-02-26T09:36:53;17.57;71.86
68450;SHT30;67758;39.572;2.652;2024-02-26T09:39:19;17.62;71.53
68450;SHT30;67758;39.572;2.652;2024-02-26T09:41:47;17.62;71.26
68450;SHT30;67758;39.572;2.652;2024-02-26T09:44:18;17.64;71.08
68450;SHT30;67758;39.572;2.652;2024-02-26T09:46:47;17.49;71.71
68450;SHT30;67758;39.572;2.652;2024-02-26T09:49:15;17.54;71.50
68450;SHT30;67758;39.572;2.652;2024-02-26T09:51:41;17.57;71.38
68450;SHT30;67758;39.572;2.652;2024-02-26T09:54:09;17.46;71.61
68450;SHT30;67758;39.572;2.652;2024-02-26T09:56:39;17.34;70.81
68450;SHT30;67758;39.572;2.652;2024-02-26T09:59:12;17.29;70.49
68450;SHT30;67758;39.572;2.652;2024-02-26T10:01:41;17.18;70.72
68450;SHT30;67758;39.572;2.652;2024-02-26T10:04:08;17.16;71.74
68450;SHT30;67758;39.572;2.652;2024-02-26T10:06:36;17.08;71.39
68450;SHT30;67758;39.572;2.652;2024-02-26T10:09:03;16.95;71.94
68450;SHT30;67758;39.572;2.652;2024-02-26T10:11:37;16.67;74.09
68450;SHT30;67758;39.572;2.652;2024-02-26T10:14:04;16.10;76.71
68450;SHT30;67758;39.572;2.652;2024-02-26T10:16:29;15.73;78.70
68450;SHT30;67758;39.572;2.652;2024-02-26T10:18:55;15.34;79.58
68450;SHT30;67758;39.572;2.652;2024-02-26T10:21:21;15.21;81.25
68450;SHT30;67758;39.572;2.652;2024-02-26T10:23:48;15.01;82.34
68450;SHT30;67758;39.572;2.652;2024-02-26T10:26:14;14.91;83.57
68450;SHT30;67758;39.572;2.652;2024-02-26T10:28:44;14.78;84.05
68450;SHT30;67758;39.572;2.652;2024-02-26T10:31:11;14.60;84.23
68450;SHT30;67758;39.572;2.652;2024-02-26T10:33:38;14.64;86.03
68450;SHT30;67758;39.572;2.652;2024-02-26T10:36:07;14.66;86.96
68450;SHT30;67758;39.572;2.652;2024-02-26T10:38:34;14.50;87.27
68450;SHT30;67758;39.572;2.652;2024-02-26T10:41:09;14.48;88.27
68450;SHT30;67758;39.572;2.652;2024-02-26T10:43:38;14.37;88.60
68450;SHT30;67758;39.572;2.652;2024-02-26T10:46:03;14.26;88.96
68450;SHT30;67758;39.572;2.652;2024-02-26T10:48:29;14.15;89.69
68450;SHT30;67758;39.572;2.652;2024-02-26T10:50:55;14.08;90.37
68450;SHT30;67758;39.572;2.652;2024-02-26T10:53:23;14.06;90.85
68450;SHT30;67758;39.572;2.652;2024-02-26T10:55:57;13.89;91.21
68450;SHT30;67758;39.572;2.652;2024-02-26T10:58:24;13.85;92.18
68450;SHT30;67758;39.572;2.652;2024-02-26T11:00:51;13.86;92.62
68450;SHT30;67758;39.572;2.652;2024-02-26T11:03:18;13.81;92.95
68450;SHT30;67758;39.572;2.652;2024-02-26T11:05:47;13.74;93.05
68450;SHT30;67758;39.572;2.652;2024-02-26T11:08:18;13.64;93.25
68450;SHT30;67758;39.572;2.652;2024-02-26T11:10:47;13.61;94.16
68450;SHT30;67758;39.572;2.652;2024-02-26T11:13:23;13.58;94.56
68450;SHT30;67758;39.572;2.652;2024-02-26T11:15:52;13.48;93.62
68450;SHT30;67758;39.572;2.652;2024-02-26T11:18:22;13.44;93.61
68450;SHT30;67758;39.572;2.652;2024-02-26T11:20:49;13.44;94.48
68450;SHT30;67758;39.572;2.652;2024-02-26T11:23:15;13.40;94.38
68450;SHT30;67758;39.572;2.652;2024-02-26T11:25:41;13.41;94.54
68450;SHT30;67758;39.572;2.652;2024-02-26T11:28:13;13.34;93.20
68450;SHT30;67758;39.572;2.652;2024-02-26T11:30:44;13.45;94.07
68450;SHT30;67758;39.572;2.652;2024-02-26T11:33:11;12.97;90.69
68450;SHT30;67758;39.572;2.652;2024-02-26T11:35:38;12.75;89.99
68450;SHT30;67758;39.572;2.652;2024-02-26T11:38:04;12.52;89.00
68450;SHT30;67758;39.572;2.652;2024-02-26T11:40:32;12.42;88.99
68450;SHT30;67758;39.572;2.652;2024-02-26T11:42:58;12.39;89.63
68450;SHT30;67758;39.572;2.652;2024-02-26T11:48:11;12.42;89.29
68450;SHT30;67758;39.572;2.652;2024-02-26T11:50:52;12.43;88.92
68450;SHT30;67758;39.572;2.652;2024-02-26T11:59:04;12.48;87.93
68450;SHT30;67758;39.572;2.652;2024-02-26T12:01:48;12.57;87.05
68450;SHT30;67758;39.572;2.652;2024-02-26T12:04:21;12.59;86.60
68450;SHT30;67758;39.572;2.652;2024-02-26T12:06:48;12.73;86.29
68450;SHT30;67758;39.572;2.652;2024-02-26T12:09:31;12.79;85.30
68450;SHT30;67758;39.572;2.652;2024-02-26T12:11:57;12.99;85.26
68450;SHT30;67758;39.572;2.652;2024-02-26T12:14:26;13.13;84.67
68450;SHT30;67758;39.572;2.652;2024-02-26T12:16:52;13.31;84.46
68450;SHT30;67758;39.572;2.652;2024-02-26T12:19:18;13.28;83.65
68450;SHT30;67758;39.572;2.652;2024-02-26T12:21:44;13.32;83.24
68450;SHT30;67758;39.572;2.652;2024-02-26T12:24:11;13.37;81.86
68450;SHT30;67758;39.572;2.652;2024-02-26T12:26:38;13.45;81.01
68450;SHT30;67758;39.572;2.652;2024-02-26T12:29:03;13.54;81.00
68450;SHT30;67758;39.572;2.652;2024-02-26T12:31:29;13.58;80.33
68450;SHT30;67758;39.572;2.652;2024-02-26T12:33:56;13.65;79.37
68450;SHT30;67758;39.572;2.652;2024-02-26T12:36:22;13.72;78.28
68450;SHT30;67758;39.572;2.652;2024-02-26T12:38:51;13.82;78.05
68450;SHT30;67758;39.572;2.652;2024-02-26T12:41:17;13.87;78.09
68450;SHT30;67758;39.572;2.652;2024-02-26T12:43:42;13.74;77.78
68450;SHT30;67758;39.572;2.652;2024-02-26T12:46:08;13.62;78.41
68450;SHT30;67758;39.572;2.652;2024-02-26T12:48:33;13.64;78.56
68450;SHT30;67758;39.572;2.652;2024-02-26T12:51:00;13.69;78.43
68450;SHT30;67758;39.572;2.652;2024-02-26T12:53:26;13.66;78.18
68450;SHT30;67758;39.572;2.652;2024-02-26T12:55:54;13.52;78.55
68450;SHT30;67758;39.572;2.652;2024-02-26T12:58:21;13.41;79.62
68450;SHT30;67758;39.572;2.652;2024-02-26T13:00:51;13.32;80.18
68450;SHT30;67758;39.572;2.652;2024-02-26T13:03:17;13.23;79.69
68450;SHT30;67758;39.572;2.652;2024-02-26T13:05:44;13.08;79.08
68450;SHT30;67758;39.572;2.652;2024-02-26T13:08:16;13.00;79.38
68450;SHT30;67758;39.572;2.652;2024-02-26T13:10:42;12.99;80.10
68450;SHT30;67758;39.572;2.652;2024-02-26T13:13:08;12.97;80.39
68450;SHT30;67758;39.572;2.652;2024-02-26T13:15:34;13.06;80.62
68450;SHT30;67758;39.572;2.652;2024-02-26T13:18:09;13.06;79.42
68450;SHT30;67758;39.572;2.652;2024-02-26T13:20:40;13.13;79.38
68450;SHT30;67758;39.572;2.652;2024-02-26T13:23:07;13.28;79.32
68450;SHT30;67758;39.572;2.652;2024-02-26T13:25:34;13.48;78.75
68450;SHT30;67758;39.572;2.652;2024-02-26T13:28:13;13.59;76.93
68450;SHT30;67758;39.572;2.652;2024-02-26T13:30:39;13.75;77.21
68450;SHT30;67758;39.572;2.652;2024-02-26T13:33:12;14.02;76.96
68450;SHT30;67758;39.572;2.652;2024-02-26T13:35:45;14.05;76.52
68450;SHT30;67758;39.572;2.652;2024-02-26T13:38:10;14.02;74.69
68450;SHT30;67758;39.572;2.652;2024-02-26T13:40:37;14.02;74.76
68450;SHT30;67758;39.572;2.652;2024-02-26T13:43:05;14.09;75.25
68450;SHT30;67758;39.572;2.652;2024-02-26T13:45:33;14.05;75.48
68450;SHT30;67758;39.572;2.652;2024-02-26T13:48:10;13.96;74.73
68450;SHT30;67758;39.572;2.652;2024-02-26T13:50:37;14.05;74.65
68450;SHT30;67758;39.572;2.652;2024-02-26T13:53:03;14.53;73.94
68450;SHT30;67758;39.572;2.652;2024-02-26T13:55:30;15.22;71.53
68450;SHT30;67758;39.572;2.652;2024-02-26T13:57:58;15.26;71.08
68450;SHT30;67758;39.572;2.652;2024-02-26T14:00:24;14.98;72.03
68450;SHT30;67758;39.572;2.652;2024-02-26T14:02:52;14.73;72.38
68450;SHT30;67758;39.572;2.652;2024-02-26T14:05:18;14.63;72.59
68450;SHT30;67758;39.572;2.652;2024-02-26T14:07:43;14.30;72.49
68450;SHT30;67758;39.572;2.652;2024-02-26T14:10:12;14.41;73.03
68450;SHT30;67758;39.572;2.652;2024-02-26T14:12:38;14.46;72.99
68450;SHT30;67758;39.572;2.652;2024-02-26T14:15:06;14.47;71.72
68450;SHT30;67758;39.572;2.652;2024-02-26T14:17:32;14.34;71.94
68450;SHT30;67758;39.572;2.652;2024-02-26T14:19:58;14.43;72.83
68450;SHT30;67758;39.572;2.652;2024-02-26T14:22:23;14.48;71.51
68450;SHT30;67758;39.572;2.652;2024-02-26T14:24:51;14.63;72.13
68450;SHT30;67758;39.572;2.652;2024-02-26T14:27:17;14.43;71.67
68450;SHT30;67758;39.572;2.652;2024-02-26T14:29:46;14.70;71.66
68450;SHT30;67758;39.572;2.652;2024-02-26T14:32:12;16.37;68.32
68450;SHT30;67758;39.572;2.652;2024-02-26T14:34:38;18.11;62.38
68450;SHT30;67758;39.572;2.652;2024-02-26T14:37:04;18.05;63.37
68450;SHT30;67758;39.572;2.652;2024-02-26T14:39:31;17.08;64.60
68450;SHT30;67758;39.572;2.652;2024-02-26T14:41:57;16.86;66.68
68450;SHT30;67758;39.572;2.652;2024-02-26T14:44:23;16.68;66.16
68450;SHT30;67758;39.572;2.652;2024-02-26T14:46:50;16.37;66.67
68450;SHT30;67758;39.572;2.652;2024-02-26T14:49:15;16.24;66.64
68450;SHT30;67758;39.572;2.652;2024-02-26T14:51:41;16.47;65.93
68450;SHT30;67758;39.572;2.652;2024-02-26T14:54:07;17.03;62.86
68450;SHT30;67758;39.572;2.652;2024-02-26T14:56:33;18.66;59.78
68450;SHT30;67758;39.572;2.652;2024-02-26T14:58:58;18.56;60.87
68450;SHT30;67758;39.572;2.652;2024-02-26T15:01:24;18.45;59.95
68450;SHT30;67758;39.572;2.652;2024-02-26T15:03:50;19.08;59.97
68450;SHT30;67758;39.572;2.652;2024-02-26T15:06:15;18.65;59.89
68450;SHT30;67758;39.572;2.652;2024-02-26T15:08:41;17.75;62.63
68450;SHT30;67758;39.572;2.652;2024-02-26T15:11:06;17.29;62.59
68450;SHT30;67758;39.572;2.652;2024-02-26T15:13:34;17.13;63.49
68450;SHT30;67758;39.572;2.652;2024-02-26T15:15:59;17.08;65.23
68450;SHT30;67758;39.572;2.652;2024-02-26T15:18:25;17.95;63.33
68450;SHT30;67758;39.572;2.652;2024-02-26T15:20:51;19.54;57.04
68450;SHT30;67758;39.572;2.652;2024-02-26T15:23:17;20.67;54.98
68450;SHT30;67758;39.572;2.652;2024-02-26T15:25:43;21.96;53.06
68450;SHT30;67758;39.572;2.652;2024-02-26T15:28:08;22.55;51.88
68450;SHT30;67758;39.572;2.652;2024-02-26T15:30:39;20.59;51.96
68450;SHT30;67758;39.572;2.652;2024-02-26T15:33:05;19.06;56.39
68450;SHT30;67758;39.572;2.652;2024-02-26T15:35:30;19.41;57.30